Halfway's Hourly Summary for Monday, July 9, 2018
Hour Temp
(f)
RH
(%)
Solar Rad.
(MJ/m2)
Rainfall
(in)
Wind
(mph)
7/9/2018 12:00 AM 72 60 0 0 5.29
7/9/2018 1:00 AM 70 70 0 0 4.01
7/9/2018 2:00 AM 68 72 0 0 3.49
7/9/2018 3:00 AM 66 77 0 0 1.01
7/9/2018 4:00 AM 66 80 0 0 1.25
7/9/2018 5:00 AM 66 79 0 0 1.89
7/9/2018 6:00 AM 65 82 0 0 2.02
7/9/2018 7:00 AM 65 85 0.01 0 2.53
7/9/2018 8:00 AM 66 78 0.34 0 2.71
7/9/2018 9:00 AM 71 67 0.98 0 4.31
7/9/2018 10:00 AM 76 54 1.71 0 3.48
7/9/2018 11:00 AM 79 50 2.44 0 5.31
7/9/2018 12:00 PM 81 44 2.88 0 4.95
7/9/2018 1:00 PM 82 44 2.67 0 6.9
7/9/2018 2:00 PM 82 44 1.96 0 5.91
7/9/2018 3:00 PM 83 37 2.59 0 5.37
7/9/2018 4:00 PM 86 33 2.92 0 8.27
7/9/2018 5:00 PM 88 30 3.01 0 9.79
7/9/2018 6:00 PM 88 29 2.29 0 10.92
7/9/2018 7:00 PM 88 29 1.66 0 12.19
7/9/2018 8:00 PM 86 29 0.89 0 12.96
7/9/2018 9:00 PM 83 33 0.2 0 10.67
7/9/2018 10:00 PM 78 40 0 0 6.78
7/9/2018 11:00 PM 74 46 0 0 5.96
Data Summary 76 53 26.55 0.00 5.75